Tiempo atmosférico en la estación meteorológica de Santa Susana, Barcelona (45 m.)



Fecha
DESCASC
Temp. máxima en grados centígrados (hora)
DESCASC
Temp. mínima en grados centígrados (hora)
DESCASC
Temp. media en grados centígrados
DESCASC
Racha de viento máxima en m/sg (hora)
DESCASC
Velocidad máxima media en intervalos de 10 minutos(hora)
DESCASC
Precipitaciones diarias en mm
DESCASC
Precipitaciones de 00:00 a 06:00 en mm
DESCASC
Precipitaciones de 06:00 a 12:00 en mm
DESCASC
Precipitaciones de 12:00 a 18:00 en mm
DESCASC
Precipitaciones de 18:00 a 24:00 en mm
DESCASC

Gráficas

Temp. máximas Temp. mínimas Temp. medias Precipitaciones Rachas de viento máximas Velocidades máximas media en intervalos de 10 minutos

Datos horarios

Fecha y hora oficial Temperatura (ºC) Velocidad del viento (km/h) Dirección del viento Racha (km/h) Dirección de racha Precipitación (mm) Presión (hPa) Tendencia (hPa) Humedad (%)
2020-06-03 23:00:00 18.9 8 Sudoeste 18 Oeste 1.2 -- -- 90
2020-06-03 22:00:00 18.7 0 Calma 17 Oeste 2.3 -- -- 90
2020-06-03 21:00:00 19.3 5 Oeste 15 Oeste 0.5 -- -- 89
2020-06-03 20:00:00 20.5 5 Oeste 25 Oeste 0 -- -- 80
2020-06-03 19:00:00 20.5 16 Sudoeste 27 Oeste 0 -- -- 80
2020-06-03 18:00:00 21.4 14 Sudoeste 27 Sudoeste 0 -- -- 73
2020-06-03 17:00:00 21.4 18 Sudoeste 39 Sudoeste 0 -- -- 72
2020-06-03 16:00:00 22.4 16 Oeste 35 Oeste 0 -- -- 71
2020-06-03 15:00:00 22.3 12 Sudoeste 34 Oeste 0 -- -- 74
2020-06-03 14:00:00 22.4 14 Sudoeste 38 Oeste 0 -- -- 66
2020-06-03 13:00:00 22.7 17 Sudoeste 37 Sudoeste 0 -- -- 64
2020-06-03 12:00:00 22.4 10 Sudoeste 36 Sudoeste 0 -- -- 67
2020-06-03 11:00:00 21.8 13 Sudoeste 31 Sudoeste 0 -- -- 69
2020-06-03 10:00:00 21.4 16 Sudoeste 32 Oeste 0 -- -- 67
2020-06-03 09:00:00 19.9 4 Sudoeste 15 Sudoeste 0 -- -- 78
2020-06-03 08:00:00 16.8 2 Sudoeste 13 Sur 0 -- -- 90
2020-06-03 07:00:00 14.5 0 Calma 4 Este 0 -- -- 90
2020-06-03 06:00:00 14.4 0 Calma 5 Noroeste 0 -- -- 90
2020-06-03 05:00:00 14.9 0 Calma 4 Norte 0 -- -- 90
2020-06-03 04:00:00 15.8 0 Calma 5 Norte 0 -- -- 90
2020-06-03 03:00:00 16.1 0 Calma 4 Este 0 -- -- 90
2020-06-03 02:00:00 16.5 0 Calma 5 Este 0 -- -- 89
2020-06-03 01:00:00 16 0 Calma 5 Noroeste 0 -- -- 89
2020-06-03 00:00:00 16.9 2 Este 5 Este 0 -- -- 88
2020-06-02 23:00:00 17.2 0 Calma 6 Este 0 -- -- 86
2020-06-02 22:00:00 18.1 0 Calma 5 Este 0 -- -- 84
2020-06-02 21:00:00 18.7 0 Calma 7 Oeste 0 -- -- 81
2020-06-02 20:00:00 20.3 5 Sudoeste 16 Oeste 0 -- -- 71
2020-06-02 19:00:00 20.5 6 Oeste 19 Oeste 0 -- -- 67
2020-06-02 18:00:00 22.5 10 Sudoeste 25 Oeste 0 -- -- 58
2020-06-02 17:00:00 21 12 Oeste 25 Oeste 0 -- -- 64
2020-06-02 16:00:00 22.7 9 Oeste 26 Oeste 0 -- -- 61
2020-06-02 15:00:00 22.5 11 Oeste 22 Oeste 0 -- -- 65
2020-06-02 14:00:00 22.8 8 Oeste 23 Oeste 0 -- -- 64
2020-06-02 13:00:00 22.4 10 Oeste 21 Sudoeste 0 -- -- 61
2020-06-02 12:00:00 22 5 Oeste 16 Sudoeste 0 -- -- 64
2020-06-02 11:00:00 21.7 2 Sudoeste 10 Noroeste 0 -- -- 72
2020-06-02 10:00:00 20.9 6 Este 13 Este 0 -- -- 80
2020-06-02 09:00:00 17 3 Este 18 Este 0 -- -- 91
2020-06-02 08:00:00 15.5 0 Calma 8 Este 0 -- -- 91
2020-06-02 07:00:00 14.1 3 Noroeste 6 Norte 0 -- -- 91
2020-06-02 06:00:00 14.3 0 Calma 3 Norte 0 -- -- 91
2020-06-02 05:00:00 15 0 Calma 5 Noroeste 0 -- -- 91
2020-06-02 04:00:00 16 0 Calma 7 Norte 0 -- -- 91
2020-06-02 03:00:00 16.9 3 Norte 7 Norte 0 -- -- 91
2020-06-02 02:00:00 16.9 0 Calma 5 Este 0 -- -- 91
2020-06-02 01:00:00 17.1 0 Calma 8 Noroeste 0.1 -- -- 91
2020-06-02 00:00:00 17.8 0 Calma 8 Este 1.7 -- -- 91
2020-06-01 23:00:00 17.9 0 Calma 8 Norte 0.8 -- -- 90
2020-06-01 22:00:00 18.8 0 Calma 4 Este 0 -- -- 89
2020-06-01 21:00:00 19.2 0 Calma 8 Oeste 0 -- -- 85
2020-06-01 20:00:00 20.6 0 Calma 10 Oeste 0 -- -- 80
2020-06-01 19:00:00 20.7 3 Oeste 15 Oeste 0 -- -- 80
2020-06-01 18:00:00 20.9 7 Oeste 18 Sudoeste 0 -- -- 74
2020-06-01 17:00:00 20.9 8 Oeste 22 Oeste 0 -- -- 76
2020-06-01 16:00:00 20.7 11 Oeste 24 Oeste 0 -- -- 78
2020-06-01 15:00:00 22 12 Oeste 26 Sudoeste 0 -- -- 74
2020-06-01 14:00:00 21.5 11 Oeste 21 Oeste 0 -- -- 77
2020-06-01 13:00:00 20.3 6 Oeste 16 Oeste 0 -- -- 89
2020-06-01 12:00:00 21.1 4 Oeste 17 Sudoeste 0 -- -- 78
2020-06-01 11:00:00 20.4 7 Oeste 15 Sudoeste 0 -- -- 80
2020-06-01 10:00:00 19.9 7 Oeste 15 Oeste 0 -- -- 79
2020-06-01 09:00:00 19.2 0 Calma 4 Nordeste 0 -- -- 84
2020-06-01 08:00:00 18 0 Calma 3 Oeste 0 -- -- 86
2020-06-01 07:00:00 18.4 0 Calma 11 Sudeste 0 -- -- 81
2020-06-01 06:00:00 18.7 4 Sudoeste 13 Oeste 0 -- -- 78
2020-06-01 05:00:00 18.7 6 Oeste 12 Sur 0 -- -- 78
2020-06-01 04:00:00 18 5 Sudoeste 10 Sur 0 -- -- 85
2020-06-01 03:00:00 17.7 0 Calma 5 Oeste 0 -- -- 86
2020-06-01 02:00:00 17 4 Oeste 8 Sudoeste 0 -- -- 86
2020-06-01 01:00:00 17.5 0 Calma 6 Noroeste 0 -- -- 85
2020-06-01 00:00:00 18.6 0 Calma 13 Noroeste 0 -- -- 82
2020-05-31 23:00:00 19.5 0 Calma 13 Sur 0 -- -- 81
2020-05-31 22:00:00 19.6 6 Sudoeste 22 Sudoeste 0 -- -- 79
2020-05-31 21:00:00 19.6 9 Oeste 22 Sudoeste 0 -- -- 78
2020-05-31 20:00:00 -- 11 Oeste 24 Oeste 0 -- -- --
2020-05-31 19:00:00 20.6 14 Oeste 26 Sudoeste 0 -- -- 71
2020-05-31 18:00:00 21.3 14 Oeste 27 Sudoeste 0 -- -- 62
2020-05-31 17:00:00 22.1 14 Oeste 35 Oeste 0 -- -- 61
2020-05-31 16:00:00 22.3 15 Oeste 32 Oeste 0 -- -- 64
2020-05-31 15:00:00 21.7 14 Oeste 33 Oeste 0 -- -- 65
2020-05-31 14:00:00 23 18 Sudoeste 34 Oeste 0 -- -- 57
2020-05-31 13:00:00 21.2 16 Sudoeste 30 Sudoeste 0 -- -- 62
2020-05-31 12:00:00 21.3 16 Sudoeste 28 Sudoeste 0 -- -- 56
2020-05-31 11:00:00 21 13 Sudoeste 26 Sudoeste 0 -- -- 60
2020-05-31 10:00:00 20.3 10 Sudoeste 19 Sudoeste 0 -- -- 65
2020-05-31 09:00:00 19.6 8 Oeste 14 Oeste 0 -- -- 75
2020-05-31 08:00:00 15.9 0 Calma 5 Sudeste 0 -- -- 90
2020-05-31 07:00:00 13.6 0 Calma 4 Este 0 -- -- 90
2020-05-31 06:00:00 13.5 0 Calma 5 Noroeste 0 -- -- 90
2020-05-31 05:00:00 13.4 0 Calma 4 Este 0 -- -- 90
2020-05-31 04:00:00 13.7 0 Calma 4 Este 0 -- -- 90
2020-05-31 03:00:00 13.9 0 Calma 4 Noroeste 0 -- -- 90
2020-05-31 02:00:00 14.6 0 Calma 5 Noroeste 0 -- -- 90
2020-05-31 01:00:00 15.1 0 Calma 6 Sudoeste 0 -- -- 89
2020-05-31 00:00:00 15.5 0 Calma 5 Norte 0 -- -- 88
2020-05-30 23:00:00 16.3 0 Calma 5 Oeste 0 -- -- 86
2020-05-30 22:00:00 17.8 0 Calma 13 Oeste 0 -- -- 81
2020-05-30 21:00:00 18.8 5 Oeste 17 Oeste 0 -- -- 78
2020-05-30 20:00:00 19.1 9 Oeste 19 Oeste 0 -- -- 73
2020-05-30 19:00:00 19.9 8 Oeste 23 Oeste 0 -- -- 69
2020-05-30 18:00:00 21.1 9 Oeste 26 Oeste 0 -- -- 64
2020-05-30 17:00:00 21.3 9 Oeste 24 Sudoeste 0 -- -- 66
2020-05-30 16:00:00 20.8 10 Oeste 26 Oeste 0 -- -- 64
2020-05-30 15:00:00 20.9 10 Oeste 25 Oeste 0 -- -- 69
2020-05-30 14:00:00 20.4 13 Oeste 25 Oeste 0 -- -- 70
2020-05-30 13:00:00 21.7 12 Oeste 25 Oeste 0 -- -- 60
2020-05-30 12:00:00 20.7 11 Oeste 20 Oeste 0 -- -- 62
2020-05-30 11:00:00 20.9 2 Sudoeste 13 Sudoeste 0 -- -- 65
2020-05-30 10:00:00 20.7 4 Nordeste 13 Norte 0 -- -- 65
2020-05-30 09:00:00 19.5 6 Nordeste 16 Norte 0 -- -- 75
2020-05-30 08:00:00 18 7 Este 14 Este 0 -- -- 83
2020-05-30 07:00:00 16.2 3 Norte 7 Norte 0 -- -- 90
2020-05-30 06:00:00 16.6 3 Nordeste 9 Este 0 -- -- 89
2020-05-30 05:00:00 17.3 4 Nordeste 13 Nordeste 0 -- -- 89
2020-05-30 04:00:00 17.1 4 Este 10 Este 0 -- -- 89
2020-05-30 03:00:00 17.1 5 Norte 10 Este 0 -- -- 89
2020-05-30 02:00:00 16.2 4 Norte 14 Norte 0 -- -- 90
2020-05-30 01:00:00 16.5 6 Norte 16 Norte 0 -- -- 86
2020-05-30 00:00:00 15.2 0 Calma 5 Norte 0 -- -- 90
2020-05-29 23:00:00 14.5 0 Calma 6 Norte 0 -- -- 90
2020-05-29 22:00:00 15.8 0 Calma 6 Este 0 -- -- 90
2020-05-29 21:00:00 17.6 0 Calma 8 Noroeste 0 -- -- 90
2020-05-29 20:00:00 18.8 3 Nordeste 10 Nordeste 0.2 -- -- 90
2020-05-29 19:00:00 18.9 3 Norte 17 Oeste 1.1 -- -- 90
2020-05-29 18:00:00 20.2 4 Oeste 21 Sudoeste 0 -- -- 79
2020-05-29 17:00:00 20.9 11 Oeste 27 Sudoeste 0 -- -- 76
2020-05-29 16:00:00 21.6 13 Oeste 24 Oeste 0 -- -- 65
2020-05-29 15:00:00 23.2 12 Oeste 22 Oeste 0 -- -- 51
2020-05-29 14:00:00 23.6 7 Oeste 21 Oeste 0 -- -- 44
2020-05-29 13:00:00 23.4 11 Oeste 25 Oeste 0 -- -- 47
2020-05-29 12:00:00 21.9 10 Oeste 19 Oeste 0 -- -- 52
2020-05-29 11:00:00 21.2 11 Oeste 17 Oeste 0 -- -- 52
2020-05-29 10:00:00 22 0 Calma 4 Este 0 -- -- 54
2020-05-29 09:00:00 16.9 0 Calma 4 Sudoeste 0 -- -- 81
2020-05-29 08:00:00 13.4 0 Calma 5 Noroeste 0 -- -- 90
2020-05-29 07:00:00 11.4 0 Calma 4 Este 0 -- -- 90
2020-05-29 06:00:00 11.3 0 Calma 3 Este 0 -- -- 90
2020-05-29 05:00:00 12.1 2 Este 5 Este 0 -- -- 89
2020-05-29 04:00:00 12.6 2 Este 4 Este 0 -- -- 89
2020-05-29 03:00:00 12.8 0 Calma 5 Norte 0 -- -- 86
2020-05-29 02:00:00 13.7 0 Calma 7 Noroeste 0 -- -- 83
2020-05-29 01:00:00 14.3 0 Calma 7 Norte 0 -- -- 76
2020-05-29 00:00:00 15.4 0 Calma 15 Oeste 0 -- -- 70
2020-05-28 23:00:00 18.1 8 Sudoeste 22 Sudoeste 0 -- -- 65
2020-05-28 22:00:00 18.5 10 Oeste 18 Sudoeste 0 -- -- 78
2020-05-28 21:00:00 19.1 9 Sudoeste 20 Sudoeste 0 -- -- 73
2020-05-28 20:00:00 19.9 12 Oeste 24 Oeste 0 -- -- 70
2020-05-28 19:00:00 20.5 12 Oeste 24 Oeste 0 -- -- 64
2020-05-28 18:00:00 20.9 12 Oeste 27 Oeste 0 -- -- 64
2020-05-28 17:00:00 21.6 15 Oeste 30 Sudoeste 0 -- -- 57
2020-05-28 16:00:00 21.6 13 Oeste 29 Oeste 0 -- -- 60
2020-05-28 15:00:00 21.7 12 Oeste 24 Oeste 0 -- -- 66
2020-05-28 14:00:00 20.9 10 Oeste 22 Oeste 0 -- -- 66
2020-05-28 13:00:00 21.8 9 Oeste 22 Oeste 0 -- -- 69
2020-05-28 12:00:00 19.9 9 Oeste 21 Oeste 0 -- -- 71
2020-05-28 11:00:00 20.8 4 Sudoeste 16 Oeste 0 -- -- 66
2020-05-28 10:00:00 19.5 7 Oeste 14 Oeste 0 -- -- 72
2020-05-28 09:00:00 16.9 0 Calma 5 Este 0 -- -- 90
2020-05-28 08:00:00 15.3 0 Calma 4 Norte 0 -- -- 90
2020-05-28 07:00:00 14.3 0 Calma 4 Nordeste 0 -- -- 90
2020-05-28 06:00:00 13.9 0 Calma 3 Este 0 -- -- 90
2020-05-28 05:00:00 13.1 0 Calma 3 Este 0 -- -- 90
2020-05-28 04:00:00 13.2 0 Calma 3 Este 0 -- -- 90
2020-05-28 03:00:00 13.7 0 Calma 5 Este 0 -- -- 90
2020-05-28 02:00:00 14.1 0 Calma 5 Noroeste 0 -- -- 90
2020-05-28 01:00:00 14.5 0 Calma 4 Este 0 -- -- 90
2020-05-28 00:00:00 14.9 0 Calma 4 Norte 0 -- -- 90
2020-05-27 23:00:00 15.7 0 Calma 5 Noroeste 0 -- -- 89
2020-05-27 22:00:00 17.2 0 Calma 5 Norte 0 -- -- 85
2020-05-27 21:00:00 19.3 4 Este 12 Este 0 -- -- 77
2020-05-27 20:00:00 21.5 3 Nordeste 12 Este 0 -- -- 65
2020-05-27 19:00:00 22.2 2 Nordeste 12 Sudeste 0 -- -- 60
2020-05-27 18:00:00 23.4 4 Este 16 Este 0 -- -- 49
2020-05-27 17:00:00 23.8 8 Este 22 Este 0 -- -- 46
2020-05-27 16:00:00 24.5 3 Este 23 Oeste 0 -- -- 49
2020-05-27 15:00:00 22.4 10 Oeste 24 Oeste 0 -- -- 47
2020-05-27 14:00:00 23.8 0 Calma 19 Este 0 -- -- 45
2020-05-27 13:00:00 24.9 5 Este 20 Este 0 -- -- 44
2020-05-27 12:00:00 24.1 9 Este 21 Este 0 -- -- 45
2020-05-27 11:00:00 24 7 Este 23 Este 0 -- -- 45
2020-05-27 10:00:00 23.3 8 Este 18 Nordeste 0 -- -- 44
2020-05-27 09:00:00 21 9 Nordeste 18 Este 0 -- -- 48
2020-05-27 08:00:00 16.9 2 Nordeste 9 Norte 0 -- -- 66
2020-05-27 07:00:00 17 0 Calma 12 Norte 0 -- -- 61
2020-05-27 06:00:00 18.7 5 Norte 19 Norte 0 -- -- 54
2020-05-27 05:00:00 16.3 2 Este 7 Norte 0 -- -- 74
2020-05-27 04:00:00 14.3 0 Calma 4 Este 0 -- -- 84
2020-05-27 03:00:00 14.8 0 Calma 4 Sudeste 0 -- -- 84
2020-05-27 02:00:00 14.6 0 Calma 4 Este 0 -- -- 84
2020-05-27 01:00:00 14.2 0 Calma 8 Norte 0 -- -- 81
2020-05-27 00:00:00 15.1 2 Este 6 Este 0 -- -- 79
2020-05-26 23:00:00 16.4 4 Este 6 Este 0 -- -- 75
2020-05-26 22:00:00 17 0 Calma 6 Este 0 -- -- 71
2020-05-26 21:00:00 19.7 0 Calma 13 Sudoeste 0 -- -- 59
2020-05-26 20:00:00 21.2 9 Sudoeste 20 Sudoeste 0 -- -- 51
2020-05-26 19:00:00 22.8 14 Sudoeste 24 Sudoeste 0 -- -- 45
2020-05-26 18:00:00 23.3 14 Oeste 23 Sudoeste 0 -- -- 44
2020-05-26 17:00:00 23.3 14 Sudoeste 26 Oeste 0 -- -- 47
2020-05-26 16:00:00 23.5 10 Oeste 25 Sudoeste 0 -- -- 41
2020-05-26 15:00:00 24.7 14 Oeste 27 Sudoeste 0 -- -- 39
2020-05-26 14:00:00 24.4 12 Oeste 27 Oeste 0 -- -- 39
2020-05-26 13:00:00 24.4 12 Oeste 22 Oeste 0 -- -- 38
2020-05-26 12:00:00 24 12 Oeste 21 Oeste 0 -- -- 39
2020-05-26 11:00:00 23.5 8 Oeste 16 Oeste 0 -- -- 40
2020-05-26 10:00:00 21.4 5 Sudoeste 12 Sudoeste 0 -- -- 49
2020-05-26 09:00:00 17.5 0 Calma 5 Oeste 0 -- -- 74
2020-05-26 08:00:00 14.1 0 Calma 7 Noroeste 0 -- -- 83
2020-05-26 07:00:00 13.2 3 Norte 9 Noroeste 0 -- -- 83
2020-05-26 06:00:00 11.9 0 Calma 5 Este 0 -- -- 86
2020-05-26 05:00:00 12.2 2 Este 5 Este 0 -- -- 86
2020-05-26 04:00:00 12.6 2 Este 4 Este 0 -- -- 88
2020-05-26 03:00:00 13.4 3 Este 5 Sudeste 0 -- -- 86
2020-05-26 02:00:00 13.3 2 Este 4 Este 0 -- -- 86
2020-05-26 01:00:00 13.6 0 Calma 5 Este 0 -- -- 85
2020-05-26 00:00:00 14 0 Calma 4 Este 0 -- -- 83
2020-05-25 23:00:00 15.4 2 Este 5 Este 0 -- -- 77
2020-05-25 22:00:00 15.8 0 Calma 4 Este 0 -- -- 78
2020-05-25 21:00:00 17.8 0 Calma 13 Oeste 0 -- -- 69
2020-05-25 20:00:00 20.1 9 Sudoeste 18 Sudoeste 0 -- -- 58
2020-05-25 19:00:00 20.8 14 Sudoeste 24 Oeste 0 -- -- 53
2020-05-25 18:00:00 21.2 12 Sudoeste 25 Sudoeste 0 -- -- 55
2020-05-25 17:00:00 21.4 12 Oeste 26 Sudoeste 0 -- -- 52
2020-05-25 16:00:00 22.9 13 Oeste 29 Oeste 0 -- -- 49
2020-05-25 15:00:00 22.9 11 Oeste 23 Sudoeste 0 -- -- 44
2020-05-25 14:00:00 22.7 9 Oeste 23 Oeste 0 -- -- 40
2020-05-25 13:00:00 22.6 10 Oeste 23 Oeste 0 -- -- 39
2020-05-25 12:00:00 24.6 4 Este 20 Nordeste 0 -- -- 36
2020-05-25 11:00:00 23.2 6 Nordeste 19 Este 0 -- -- 37
2020-05-25 10:00:00 21.7 7 Nordeste 18 Este 0 -- -- 42
2020-05-25 09:00:00 20.3 7 Nordeste 16 Este 0 -- -- 45
2020-05-25 08:00:00 17.5 0 Calma 4 Norte 0 -- -- 75
2020-05-25 07:00:00 16.3 0 Calma 4 Norte 0 -- -- 80
2020-05-25 06:00:00 16.3 0 Calma 3 Este 0 -- -- 86
2020-05-25 05:00:00 16.7 2 Norte 6 Norte 0 -- -- 85
2020-05-25 04:00:00 17.3 2 Norte 5 Norte 0 -- -- 84
2020-05-25 03:00:00 16.7 0 Calma 3 Este 0 -- -- 85
2020-05-25 02:00:00 16.7 2 Este 4 Este 0 -- -- 84
2020-05-25 01:00:00 16.5 0 Calma 4 Noroeste 0 -- -- 84
2020-05-25 00:00:00 16.4 2 Este 6 Este 0 -- -- 83
2020-05-24 23:00:00 16.2 0 Calma 4 Oeste 0 -- -- 84
2020-05-24 22:00:00 17.9 2 Oeste 5 Noroeste 0 -- -- 76
2020-05-24 21:00:00 18.3 2 Sur 10 Oeste 0 -- -- 71
2020-05-24 20:00:00 20.1 6 Oeste 21 Sudoeste 0 -- -- 64
2020-05-24 19:00:00 21.3 8 Sudoeste 24 Oeste 0 -- -- 60
2020-05-24 18:00:00 21.1 13 Sudoeste 24 Sudoeste 0 -- -- 59
2020-05-24 17:00:00 21.8 9 Sudoeste 19 Oeste 0 -- -- 55
2020-05-24 16:00:00 20.5 7 Oeste 17 Oeste 0 -- -- 55
2020-05-24 15:00:00 19.5 6 Oeste 21 Oeste 0 -- -- 56
2020-05-24 14:00:00 20.6 8 Oeste 19 Oeste 0 -- -- 49
2020-05-24 13:00:00 22 8 Oeste 19 Oeste 0 -- -- 45
2020-05-24 12:00:00 21.4 8 Este 16 Este 0 -- -- 46
2020-05-24 11:00:00 20.6 7 Nordeste 17 Nordeste 0 -- -- 47
2020-05-24 10:00:00 21.5 9 Este 19 Este 0 -- -- 46
2020-05-24 09:00:00 18.8 8 Nordeste 16 Este 0 -- -- 52
2020-05-24 08:00:00 17.2 4 Norte 14 Norte 0 -- -- 59
2020-05-24 07:00:00 17.1 2 Norte 13 Noroeste 0 -- -- 60
2020-05-24 06:00:00 17.5 4 Norte 14 Norte 0 -- -- 63
2020-05-24 05:00:00 17.9 5 Norte 15 Noroeste 0 -- -- 63
2020-05-24 04:00:00 18 3 Noroeste 8 Norte 0 -- -- 65
2020-05-24 03:00:00 18.2 2 Noroeste 6 Norte 0 -- -- 60
2020-05-24 02:00:00 19.2 5 Norte 13 Noroeste 0 -- -- 55
2020-05-24 01:00:00 19.9 5 Nordeste 14 Este 0 -- -- 51
2020-05-24 00:00:00 19.9 8 Este 23 Este 0 -- -- 52
2020-05-23 23:00:00 20.1 9 Este 24 Este 0 -- -- 54
2020-05-23 22:00:00 20.9 10 Este 21 Este 0 -- -- 55
2020-05-23 21:00:00 19.9 0 Calma 15 Este 0 -- -- 76
2020-05-23 20:00:00 22.5 7 Este 21 Este 0 -- -- 66
2020-05-23 19:00:00 22.5 8 Este 18 Este 0 -- -- 64
2020-05-23 18:00:00 24.5 8 Este 21 Este 0 -- -- 50
2020-05-23 17:00:00 24.1 2 Oeste 21 Oeste 0 -- -- 57
2020-05-23 16:00:00 23.6 7 Oeste 21 Oeste 0 -- -- 60
2020-05-23 15:00:00 24.9 10 Sudoeste 30 Sudoeste 0 -- -- 44
2020-05-23 14:00:00 24.3 14 Sudoeste 30 Sudoeste 0 -- -- 48
2020-05-23 13:00:00 24.3 16 Sudoeste 28 Oeste 0 -- -- 45
2020-05-23 12:00:00 23.3 15 Sudoeste 29 Oeste 0 -- -- 51
2020-05-23 11:00:00 23.7 5 Sudoeste 22 Oeste 0 -- -- 45
2020-05-23 10:00:00 22.7 5 Sudoeste 19 Sudoeste 0 -- -- 47
2020-05-23 09:00:00 20.5 5 Sudoeste 21 Sudoeste 0 -- -- 54
2020-05-23 08:00:00 13.5 0 Calma 4 Este 0 -- -- 86
2020-05-23 07:00:00 11.6 0 Calma 6 Este 0 -- -- 89
2020-05-23 06:00:00 11.3 0 Calma 6 Sudeste 0 -- -- 89
2020-05-23 05:00:00 11.8 0 Calma 5 Este 0 -- -- 88
2020-05-23 04:00:00 12.7 0 Calma 4 Este 0 -- -- 86
2020-05-23 03:00:00 13.9 0 Calma 4 Oeste 0 -- -- 85
2020-05-23 02:00:00 14.9 0 Calma 6 Noroeste 0 -- -- 81
2020-05-23 01:00:00 15.2 0 Calma 7 Oeste 0 -- -- 80
2020-05-23 00:00:00 16 4 Sudoeste 13 Oeste 0 -- -- 75
2020-05-22 23:00:00 18 4 Oeste 15 Oeste 0 -- -- 71
2020-05-22 22:00:00 21.1 9 Sudoeste 17 Sudoeste 0 -- -- 62
2020-05-22 21:00:00 21.2 5 Sudoeste 18 Sudoeste 0 -- -- 65
2020-05-22 20:00:00 21.9 11 Oeste 23 Sudoeste 0 -- -- 61
2020-05-22 19:00:00 23.2 10 Sudoeste 24 Sudoeste 0 -- -- 59
2020-05-22 18:00:00 23.9 15 Sudoeste 25 Oeste 0 -- -- 55
2020-05-22 17:00:00 24.5 10 Oeste 24 Sudoeste 0 -- -- 57
2020-05-22 16:00:00 24.7 14 Sudoeste 28 Sudoeste 0 -- -- 55
2020-05-22 15:00:00 23.8 12 Oeste 26 Oeste 0 -- -- 64
2020-05-22 14:00:00 25.5 12 Oeste 19 Oeste 0 -- -- 49
2020-05-22 13:00:00 24.2 9 Oeste 19 Oeste 0 -- -- 49
2020-05-22 12:00:00 24.1 9 Oeste 16 Oeste 0 -- -- 51
2020-05-22 11:00:00 23.7 6 Oeste 16 Oeste 0 -- -- 55
2020-05-22 10:00:00 22.5 5 Sudoeste 8 Sudoeste 0 -- -- 66
2020-05-22 09:00:00 18.2 3 Sudoeste 6 Sudoeste 0 -- -- 86
2020-05-22 08:00:00 15.5 0 Calma 4 Norte 0 -- -- 90
2020-05-22 07:00:00 14 0 Calma 4 Norte 0 -- -- 90
2020-05-22 06:00:00 13.8 0 Calma 4 Este 0 -- -- 90
2020-05-22 05:00:00 14.3 2 Este 3 Nordeste 0 -- -- 90
2020-05-22 04:00:00 14.5 0 Calma 4 Este 0 -- -- 90
2020-05-22 03:00:00 14.8 0 Calma 5 Noroeste 0 -- -- 90
2020-05-22 02:00:00 15.1 0 Calma 4 Norte 0 -- -- 90
2020-05-22 01:00:00 15.4 0 Calma 4 Noroeste 0 -- -- 90
2020-05-22 00:00:00 15.9 0 Calma 6 Noroeste 0 -- -- 89
2020-05-21 23:00:00 16.7 0 Calma 4 Oeste 0 -- -- 89
2020-05-21 22:00:00 17.7 0 Calma 4 Noroeste 0 -- -- 86
2020-05-21 21:00:00 18.7 0 Calma 13 Oeste 0 -- -- 83
2020-05-21 20:00:00 21 9 Oeste 19 Oeste 0 -- -- 70
2020-05-21 19:00:00 21.6 10 Oeste 21 Oeste 0 -- -- 65
2020-05-21 18:00:00 22.4 11 Oeste 24 Oeste 0 -- -- 62
2020-05-21 17:00:00 23.2 10 Oeste 26 Sudoeste 0 -- -- 60
2020-05-21 16:00:00 27.2 12 Sudoeste 26 Sudoeste 0 -- -- 36
2020-05-21 15:00:00 28.4 10 Sudoeste 26 Sudoeste 0 -- -- 35
2020-05-21 14:00:00 27.4 12 Sudoeste 26 Sudoeste 0 -- -- 37
2020-05-21 13:00:00 27.4 13 Sudoeste 24 Sudoeste 0 -- -- 36
2020-05-21 12:00:00 26.5 12 Sudoeste 21 Sudoeste 0 -- -- 37
2020-05-21 11:00:00 25.9 5 Sudoeste 10 Oeste 0 -- -- 42
2020-05-21 10:00:00 23.9 3 Sudoeste 7 Sudoeste 0 -- -- 52
2020-05-21 09:00:00 18.5 0 Calma 3 Nordeste 0 -- -- 73
2020-05-21 08:00:00 15.3 0 Calma 5 Este 0 -- -- 79
2020-05-21 07:00:00 13.2 2 Este 5 Este 0 -- -- 79
2020-05-21 06:00:00 12.6 0 Calma 4 Este 0 -- -- 79
2020-05-21 05:00:00 12.9 2 Este 4 Este 0 -- -- 76
2020-05-21 04:00:00 13.3 3 Este 4 Este 0 -- -- 75
2020-05-21 03:00:00 13.1 0 Calma 4 Este 0 -- -- 78
2020-05-21 02:00:00 13.7 2 Este 4 Este 0 -- -- 76
2020-05-21 01:00:00 14.2 0 Calma 4 Este 0 -- -- 74
2020-05-21 00:00:00 14.9 0 Calma 4 Este 0 -- -- 69
2020-05-20 23:00:00 16.2 2 Este 7 Este 0 -- -- 66
2020-05-20 22:00:00 18 5 Este 6 Este 0 -- -- 61
2020-05-20 21:00:00 20 0 Calma 11 Oeste 0 -- -- 56
2020-05-20 20:00:00 23.5 6 Oeste 19 Sudoeste 0 -- -- 43
2020-05-20 19:00:00 23.6 13 Sudoeste 22 Sudoeste 0 -- -- 44
2020-05-20 18:00:00 24.1 15 Sudoeste 24 Sudoeste 0 -- -- 42
2020-05-20 17:00:00 24.5 12 Oeste 26 Oeste 0 -- -- 42
2020-05-20 16:00:00 24.7 11 Sudoeste 24 Sudoeste 0 -- -- 41
2020-05-20 15:00:00 25.4 10 Oeste 20 Sudoeste 0 -- -- 39
2020-05-20 14:00:00 25.7 12 Sudoeste 20 Oeste 0 -- -- 37
2020-05-20 13:00:00 24.3 8 Oeste 21 Oeste 0 -- -- 42
2020-05-20 12:00:00 24.2 9 Oeste 20 Sudoeste 0 -- -- 41
2020-05-20 11:00:00 24.9 6 Oeste 13 Oeste 0 -- -- 37
2020-05-20 10:00:00 22.7 0 Calma 9 Este 0 -- -- 49
2020-05-20 09:00:00 17.1 0 Calma 4 Norte 0 -- -- 71
2020-05-20 08:00:00 13.7 2 Este 8 Noroeste 0 -- -- 78
2020-05-20 07:00:00 13 3 Norte 7 Norte 0 -- -- 73
2020-05-20 06:00:00 11.6 0 Calma 10 Noroeste 0 -- -- 80
2020-05-20 05:00:00 12.2 0 Calma 6 Norte 0 -- -- 78
2020-05-20 04:00:00 12.9 0 Calma 6 Norte 0 -- -- 75
2020-05-20 03:00:00 13.7 0 Calma 7 Este 0 -- -- 74
2020-05-20 02:00:00 13.5 0 Calma 6 Este 0 -- -- 73
2020-05-20 01:00:00 14 0 Calma 5 Este 0 -- -- 69
2020-05-20 00:00:00 15.2 0 Calma 8 Norte 0 -- -- 68
2020-05-19 23:00:00 16.1 0 Calma 5 Norte 0 -- -- 71
2020-05-19 22:00:00 17.2 0 Calma 4 Sudoeste 0 -- -- 69
2020-05-19 21:00:00 19.2 2 Oeste 6 Oeste 0 -- -- 60
2020-05-19 20:00:00 22.7 2 Sur 14 Sudoeste 0 -- -- 44
2020-05-19 19:00:00 23 7 Sudoeste 19 Sudoeste 0 -- -- 41
2020-05-19 18:00:00 22.9 11 Sudoeste 23 Oeste 0 -- -- 41
2020-05-19 17:00:00 23.4 11 Sudoeste 21 Sudoeste 0 -- -- 41
2020-05-19 16:00:00 22.7 13 Sudoeste 23 Oeste 0 -- -- 44
2020-05-19 15:00:00 23.7 11 Oeste 23 Sudoeste 0 -- -- 40
2020-05-19 14:00:00 23.6 7 Oeste 21 Sudoeste 0 -- -- 40
2020-05-19 13:00:00 23.5 9 Oeste 18 Oeste 0 -- -- 38
2020-05-19 12:00:00 23.6 7 Oeste 16 Oeste 0 -- -- 41
2020-05-19 11:00:00 22.7 9 Oeste 16 Oeste 0 -- -- 46
2020-05-19 10:00:00 20.7 3 Oeste 9 Oeste 0 -- -- 61
2020-05-19 09:00:00 16.1 0 Calma 4 Este 0 -- -- 81
2020-05-19 08:00:00 12.9 0 Calma 6 Este 0 -- -- 89
2020-05-19 07:00:00 11.6 0 Calma 5 Este 0 -- -- 90
2020-05-19 06:00:00 11.6 0 Calma 7 Norte 0 -- -- 90
2020-05-19 05:00:00 12 2 Este 6 Este 0 -- -- 89
2020-05-19 04:00:00 11.9 2 Este 5 Este 0 -- -- 89
2020-05-19 03:00:00 12.4 3 Este 5 Este 0 -- -- 89
2020-05-19 02:00:00 13 3 Este 5 Este 0 -- -- 88
2020-05-19 01:00:00 13 0 Calma 5 Este 0 -- -- 86
2020-05-19 00:00:00 13.2 0 Calma 4 Norte 0 -- -- 86
2020-05-18 23:00:00 14.2 0 Calma 5 Este 0 -- -- 83
2020-05-18 22:00:00 15.5 0 Calma 6 Norte 0 -- -- 79
2020-05-18 21:00:00 17.8 2 Noroeste 9 Sudoeste 0 -- -- 71
2020-05-18 20:00:00 22.7 3 Sudoeste 12 Oeste 0 -- -- 44
2020-05-18 19:00:00 22.2 5 Sudoeste 23 Sudoeste 0 -- -- 42
2020-05-18 18:00:00 21.8 14 Oeste 29 Sudoeste 0 -- -- 40
2020-05-18 17:00:00 21.2 17 Sudoeste 30 Sudoeste 0 -- -- 44
2020-05-18 16:00:00 21.7 14 Sudoeste 33 Sudoeste 0 -- -- 45
2020-05-18 15:00:00 22.1 15 Sudoeste 31 Oeste 0 -- -- 45
2020-05-18 14:00:00 21.8 15 Sudoeste 25 Sudoeste 0 -- -- 50
2020-05-18 13:00:00 21.3 7 Oeste 19 Oeste 0 -- -- 55
2020-05-18 12:00:00 19.5 10 Oeste 21 Oeste 0 -- -- 62
2020-05-18 11:00:00 20.4 6 Oeste 14 Oeste 0 -- -- 54
2020-05-18 10:00:00 17.8 4 Oeste 9 Oeste 0 -- -- 65
2020-05-18 09:00:00 14.9 3 Este 6 Este 0 -- -- 85
2020-05-18 08:00:00 12.3 4 Este 6 Este 0 -- -- 90
2020-05-18 07:00:00 10.7 0 Calma 6 Este 0 -- -- 90
2020-05-18 06:00:00 11.2 2 Este 6 Este 0 -- -- 90
2020-05-18 05:00:00 11.3 2 Este 6 Este 0 -- -- 90
2020-05-18 04:00:00 11.5 4 Este 6 Este 0 -- -- 90
2020-05-18 03:00:00 11.5 2 Este 5 Sudeste 0 -- -- 90
2020-05-18 02:00:00 11.9 3 Este 6 Noroeste 0 -- -- 90
2020-05-18 01:00:00 12.3 3 Este 5 Este 0 -- -- 90
2020-05-18 00:00:00 12.5 0 Calma 5 Noroeste 0 -- -- 90
2020-05-17 23:00:00 13.7 0 Calma 3 Oeste 0 -- -- 90
2020-05-17 22:00:00 15 0 Calma 6 Oeste 0 -- -- 89
2020-05-17 21:00:00 16.5 2 Sudoeste 9 Sudoeste 0 -- -- 85
2020-05-17 20:00:00 18.4 0 Calma 13 Sudoeste 0 -- -- 76
2020-05-17 19:00:00 18.4 8 Oeste 17 Sudoeste 0 -- -- 72
2020-05-17 18:00:00 19.6 5 Sudoeste 20 Oeste 0 -- -- 66
2020-05-17 17:00:00 19.9 10 Oeste 22 Sudoeste 0 -- -- 60
2020-05-17 16:00:00 20.2 9 Oeste 23 Oeste 0 -- -- 59
2020-05-17 15:00:00 20.5 6 Oeste 24 Oeste 0 -- -- 59
2020-05-17 14:00:00 19.3 13 Sudoeste 28 Sudoeste 0 -- -- 58
2020-05-17 13:00:00 19.4 15 Sudoeste 29 Sudoeste 0 -- -- 57
2020-05-17 12:00:00 20.6 14 Sudoeste 26 Oeste 0 -- -- 47
2020-05-17 11:00:00 20.2 4 Oeste 11 Oeste 0 -- -- 54
2020-05-17 10:00:00 18.6 0 Calma 6 Noroeste 0 -- -- 68
2020-05-17 09:00:00 15.7 2 Este 6 Este 0 -- -- 85
2020-05-17 08:00:00 14.5 0 Calma 5 Noroeste 0 -- -- 87
2020-05-17 07:00:00 13.9 0 Calma 6 Noroeste 0 -- -- 88
2020-05-17 06:00:00 13.4 0 Calma 4 Noroeste 0 -- -- 88
2020-05-17 05:00:00 13.5 0 Calma 4 Este 0 -- -- 88
2020-05-17 04:00:00 13.8 2 Norte 6 Norte 0 -- -- 86
2020-05-17 03:00:00 14 2 Este 4 Nordeste 0 -- -- 84
2020-05-17 02:00:00 13.2 0 Calma 5 Este 0 -- -- 85
2020-05-17 01:00:00 12.9 0 Calma 4 Este 0 -- -- 83
2020-05-17 00:00:00 14 0 Calma 6 Oeste 0 -- -- 78
2020-05-16 23:00:00 14 0 Calma 11 Nordeste 0 -- -- 73
2020-05-16 22:00:00 16.6 6 Este 17 Nordeste 0 -- -- 56
2020-05-16 21:00:00 17.9 6 Nordeste 18 Este 0 -- -- 51
2020-05-16 20:00:00 17.2 0 Calma 12 Sudoeste 0 -- -- 70
2020-05-16 19:00:00 18.3 3 Sudoeste 13 Oeste 0 -- -- 66
2020-05-16 18:00:00 20.2 2 Norte 20 Este 0 -- -- 47
2020-05-16 17:00:00 21.1 14 Este 35 Nordeste 0 -- -- 39
2020-05-16 16:00:00 22.1 12 Este 31 Este 0 -- -- 40
2020-05-16 15:00:00 20.2 14 Este 32 Este 0 -- -- 44
2020-05-16 14:00:00 19.1 7 Nordeste 27 Este 0 -- -- 49
2020-05-16 13:00:00 19.9 10 Este 26 Nordeste 0 -- -- 52
2020-05-16 12:00:00 18.3 14 Nordeste 31 Este 0 -- -- 59
2020-05-16 11:00:00 18.1 16 Este 30 Este 0 -- -- 63
2020-05-16 10:00:00 16.6 15 Este 36 Este 0 -- -- 69
2020-05-16 09:00:00 15.9 16 Este 32 Nordeste 0 -- -- 70
2020-05-16 08:00:00 15.4 12 Este 23 Este 0 -- -- 75
2020-05-16 07:00:00 14.8 10 Este 21 Este 0 -- -- 79
2020-05-16 06:00:00 15.6 10 Este 18 Este 0 -- -- 74
2020-05-16 05:00:00 15.6 6 Nordeste 15 Este 0 -- -- 79
2020-05-16 04:00:00 14.3 0 Calma 10 Norte 0 -- -- 89
2020-05-16 03:00:00 13.7 0 Calma 5 Este 0 -- -- 89
2020-05-16 02:00:00 14.4 0 Calma 5 Este 0 -- -- 87
2020-05-16 01:00:00 15.2 2 Este 6 Este 0 -- -- 86
2020-05-16 00:00:00 15.7 3 Este 10 Norte 0 -- -- 81
2020-05-15 23:00:00 15.3 0 Calma 9 Este 0 -- -- 82
2020-05-15 22:00:00 15.7 0 Calma 6 Este 0 -- -- 77
2020-05-15 21:00:00 17.3 3 Este 9 Este 0 -- -- 64
2020-05-15 20:00:00 18 3 Este 15 Este 0 -- -- 58
2020-05-15 19:00:00 18.9 7 Este 18 Este 0 -- -- 55
2020-05-15 18:00:00 20.1 10 Este 15 Este 0 -- -- 51
2020-05-15 17:00:00 19.7 2 Sudoeste 17 Oeste 0 -- -- 56
2020-05-15 16:00:00 19.2 0 Calma 24 Oeste 0 -- -- 59
2020-05-15 15:00:00 19.5 0 Calma 23 Oeste 0 -- -- 62
2020-05-15 14:00:00 18.6 4 Oeste 23 Oeste 0 -- -- 65
2020-05-15 13:00:00 18.9 4 Oeste 15 Este 0 -- -- 59
2020-05-15 12:00:00 19.6 2 Este 16 Sudeste 0 -- -- 55
2020-05-15 11:00:00 18.5 5 Este 11 Este 0 -- -- 66
2020-05-15 10:00:00 15.6 0 Calma 8 Este 0 -- -- 88
2020-05-15 09:00:00 13.5 0 Calma 8 Nordeste 0 -- -- 91
2020-05-15 08:00:00 12.3 0 Calma 5 Nordeste 0 -- -- 91
2020-05-15 07:00:00 11.7 0 Calma 7 Nordeste 0 -- -- 91
2020-05-15 06:00:00 11.2 0 Calma 4 Este 0 -- -- 91
2020-05-15 05:00:00 10.6 0 Calma 6 Noroeste 0 -- -- 91
2020-05-15 04:00:00 10.2 0 Calma 6 Norte 0 -- -- 91
2020-05-15 03:00:00 9.7 0 Calma 6 Este 0 -- -- 91
2020-05-15 02:00:00 9.6 0 Calma 5 Este 0 -- -- 91
2020-05-15 01:00:00 9.8 0 Calma 5 Este 0 -- -- 91
2020-05-15 00:00:00 10.5 0 Calma 6 Este 0 -- -- 91
2020-05-14 23:00:00 11.5 3 Este 5 Este 0 -- -- 91
2020-05-14 22:00:00 12.7 2 Norte 6 Nordeste 0.1 -- -- 91
2020-05-14 21:00:00 13.2 2 Nordeste 7 Este 0.1 -- -- 91
2020-05-14 20:00:00 14 4 Nordeste 6 Nordeste 0.3 -- -- 91
2020-05-14 19:00:00 13.9 2 Oeste 8 Sudoeste 0.8 -- -- 91
2020-05-14 18:00:00 14.9 3 Oeste 15 Sudoeste 0.8 -- -- 90
2020-05-14 17:00:00 16.4 0 Calma 9 Este 0.3 -- -- 89
2020-05-14 16:00:00 17.3 3 Este 14 Sur 0 -- -- 85
2020-05-14 15:00:00 16.8 4 Este 10 Este 0 -- -- 85
2020-05-14 14:00:00 17 4 Este 14 Este 0.6 -- -- 89
2020-05-14 13:00:00 16.4 0 Calma 14 Este 0.4 -- -- 89
2020-05-14 12:00:00 17 0 Calma 11 Sudoeste 0 -- -- 80
2020-05-14 11:00:00 17.6 6 Este 19 Nordeste 0 -- -- 71
2020-05-14 10:00:00 17.4 8 Nordeste 16 Este 0 -- -- 72
2020-05-14 09:00:00 17.2 4 Este 15 Noroeste 0 -- -- 75
2020-05-14 08:00:00 15.8 6 Norte 12 Noroeste 0 -- -- 83
2020-05-14 07:00:00 15.5 8 Este 19 Este 0 -- -- 84
2020-05-14 06:00:00 14.9 6 Norte 14 Norte 0 -- -- 86
2020-05-14 05:00:00 15.6 5 Nordeste 15 Nordeste 0 -- -- 83
2020-05-14 04:00:00 15.8 8 Este 14 Nordeste 0 -- -- 83
2020-05-14 03:00:00 15.8 6 Este 12 Este 0 -- -- 81
2020-05-14 02:00:00 16.3 5 Nordeste 15 Nordeste 0 -- -- 78
2020-05-14 01:00:00 17.3 6 Norte 12 Nordeste 0 -- -- 73
2020-05-14 00:00:00 17.3 5 Nordeste 8 Nordeste 0 -- -- 76
2020-05-13 23:00:00 14.5 0 Calma 6 Este 0 -- -- 85
2020-05-13 22:00:00 15.6 2 Este 18 Sudoeste 0 -- -- 80
2020-05-13 21:00:00 16.8 6 Oeste 21 Noroeste 0 -- -- 76
2020-05-13 20:00:00 17.9 5 Oeste 35 Sudoeste 0 -- -- 70
2020-05-13 19:00:00 18.4 9 Sudoeste 37 Oeste 0 -- -- 65
2020-05-13 18:00:00 19.1 14 Oeste 37 Sudoeste 0 -- -- 64
2020-05-13 17:00:00 19.1 14 Sudoeste 36 Sudoeste 0 -- -- 59
2020-05-13 16:00:00 21.7 8 Oeste 39 Sudoeste 0 -- -- 54
2020-05-13 15:00:00 21.2 8 Oeste 34 Sudoeste 0 -- -- 53
2020-05-13 14:00:00 20.5 11 Sudoeste 32 Oeste 0 -- -- 60
2020-05-13 13:00:00 19.4 18 Sudoeste 38 Sudoeste 0 -- -- 60
2020-05-13 12:00:00 21.1 9 Sudoeste 26 Sudoeste 0 -- -- 57
2020-05-13 11:00:00 18.3 10 Sudoeste 19 Oeste 0 -- -- 66
2020-05-13 10:00:00 18.7 4 Noroeste 17 Este 0 -- -- 67
2020-05-13 09:00:00 15.5 9 Este 16 Este 0 -- -- 84
2020-05-13 08:00:00 14.7 10 Este 27 Este 0 -- -- 83
2020-05-13 07:00:00 15.1 17 Este 32 Este 0 -- -- 70
2020-05-13 06:00:00 15.1 13 Este 30 Nordeste 0 -- -- 70
2020-05-13 05:00:00 15.5 9 Nordeste 28 Este 0 -- -- 65
2020-05-13 04:00:00 15.6 16 Este 32 Nordeste 0 -- -- 65
2020-05-13 03:00:00 15.5 13 Nordeste 28 Este 0 -- -- 64
2020-05-13 02:00:00 16 15 Este 43 Este 0 -- -- 60
2020-05-13 01:00:00 15.4 15 Este 24 Este 0 -- -- 68
2020-05-13 00:00:00 15.2 10 Este 19 Este 0 -- -- 71
2020-05-12 23:00:00 15.5 8 Nordeste 17 Nordeste 0 -- -- 69
2020-05-12 22:00:00 16 6 Nordeste 17 Nordeste 0 -- -- 65
2020-05-12 21:00:00 17 4 Nordeste 11 Norte 0 -- -- 59
2020-05-12 20:00:00 16.4 3 Oeste 24 Este 0 -- -- 61
2020-05-12 19:00:00 17.9 11 Este 23 Este 0 -- -- 57
2020-05-12 18:00:00 18.6 14 Este 25 Este 0 -- -- 58
2020-05-12 17:00:00 18.2 0 Calma 25 Este 0 -- -- 62
2020-05-12 16:00:00 18.4 9 Este 23 Oeste 0 -- -- 60
2020-05-12 15:00:00 18.5 0 Calma 26 Sudoeste 0 -- -- 58
2020-05-12 14:00:00 16.9 6 Oeste 25 Oeste 0 -- -- 69
2020-05-12 13:00:00 17.5 10 Oeste 22 Oeste 0 -- -- 67
2020-05-12 12:00:00 16.1 12 Oeste 20 Oeste 0 -- -- 70
2020-05-12 11:00:00 17.7 10 Oeste 21 Oeste 0 -- -- 67
2020-05-12 10:00:00 16.6 4 Este 12 Este 0 -- -- 69
2020-05-12 09:00:00 16.1 3 Oeste 11 Oeste 0 -- -- 77
2020-05-12 08:00:00 13.7 0 Calma 4 Este 0 -- -- 90
2020-05-12 07:00:00 12.4 2 Este 6 Este 0 -- -- 90
2020-05-12 06:00:00 11 0 Calma 7 Este 0 -- -- 90
2020-05-12 05:00:00 11.4 2 Este 6 Oeste 0 -- -- 90
2020-05-12 04:00:00 12.3 0 Calma 6 Este 0 -- -- 89
2020-05-12 03:00:00 13.6 4 Norte 9 Norte 0 -- -- 86
2020-05-12 02:00:00 13 2 Noroeste 10 Norte 0 -- -- 87
2020-05-12 01:00:00 13.3 2 Nordeste 9 Nordeste 0 -- -- 86
2020-05-12 00:00:00 14.5 0 Calma 9 Nordeste 0 -- -- 84
2020-05-11 23:00:00 15.2 4 Norte 13 Noroeste 0 -- -- 80
2020-05-11 22:00:00 16.1 3 Norte 13 Norte 0 -- -- 76
2020-05-11 21:00:00 17.6 5 Norte 24 Sudoeste 0 -- -- 68
2020-05-11 20:00:00 19.6 9 Oeste 32 Sudoeste 0 -- -- 54
2020-05-11 19:00:00 19.9 9 Sudoeste 40 Sudoeste 0 -- -- 54
2020-05-11 18:00:00 19 14 Sudoeste 33 Oeste 0 -- -- 56
2020-05-11 17:00:00 21.2 12 Sudoeste 34 Noroeste 0 -- -- 47
2020-05-11 16:00:00 23.2 9 Oeste 36 Noroeste 0 -- -- 37
2020-05-11 15:00:00 22.1 7 Oeste 36 Noroeste 0 -- -- 39
2020-05-11 14:00:00 22.6 9 Noroeste 43 Oeste 0 -- -- 37
2020-05-11 13:00:00 21.6 6 Oeste 35 Norte 0 -- -- 44
2020-05-11 12:00:00 19.8 6 Noroeste 34 Norte 0 -- -- 47
2020-05-11 11:00:00 18.8 7 Noroeste 27 Noroeste 0 -- -- 54
2020-05-11 10:00:00 16.4 4 Sudoeste 30 Oeste 0 -- -- 63
2020-05-11 09:00:00 15.7 5 Noroeste 22 Noroeste 0 -- -- 65
2020-05-11 08:00:00 14.5 5 Oeste 22 Oeste 0 -- -- 71
2020-05-11 07:00:00 13.8 8 Sudoeste 28 Sudoeste 0 -- -- 75
2020-05-11 06:00:00 13.9 8 Sudoeste 20 Sudoeste 0 -- -- 75
2020-05-11 05:00:00 14.2 6 Sudoeste 19 Oeste 0 -- -- 75
2020-05-11 04:00:00 14 2 Sudoeste 28 Sudoeste 0 -- -- 79
2020-05-11 03:00:00 14.6 4 Oeste 21 Oeste 0 -- -- 74
2020-05-11 02:00:00 13.9 3 Sudoeste 25 Oeste 0 -- -- 80
2020-05-11 01:00:00 13.7 5 Oeste 18 Norte 0 -- -- 79
2020-05-11 00:00:00 14.3 6 Sudoeste 29 Sudoeste 0 -- -- 75
2020-05-10 23:00:00 14.2 8 Sudoeste 22 Noroeste 0 -- -- 79
2020-05-10 22:00:00 14.3 7 Oeste 27 Oeste 0 -- -- 76
2020-05-10 21:00:00 15.4 6 Oeste 31 Oeste 0 -- -- 71
2020-05-10 20:00:00 16 7 Oeste 40 Sudoeste 0 -- -- 79
2020-05-10 19:00:00 16.5 13 Sudoeste 37 Oeste 0 -- -- 80
2020-05-10 18:00:00 16.5 19 Oeste 34 Sudoeste 0 -- -- 77
2020-05-10 17:00:00 16.9 9 Oeste 35 Sudoeste 1.7 -- -- 84
2020-05-10 16:00:00 17.9 11 Oeste 35 Oeste 0 -- -- 73
2020-05-10 15:00:00 18.5 21 Oeste 37 Oeste 0 -- -- 79
2020-05-10 14:00:00 17.6 12 Oeste 23 Noroeste 0.2 -- -- 90
2020-05-10 13:00:00 17.2 5 Oeste 18 Oeste 0.9 -- -- 90
2020-05-10 12:00:00 17.5 5 Oeste 13 Sudoeste 0 -- -- 91
2020-05-10 11:00:00 17.2 3 Oeste 8 Oeste 0.1 -- -- 91
2020-05-10 10:00:00 16.9 2 Oeste 9 Oeste 0.2 -- -- 91
2020-05-10 09:00:00 16.7 4 Oeste 23 Oeste 0.1 -- -- 91
2020-05-10 08:00:00 16.5 14 Oeste 31 Oeste 1.2 -- -- 91
2020-05-10 07:00:00 16.8 0 Calma 10 Oeste 0 -- -- 91
2020-05-10 06:00:00 16.8 0 Calma 7 Este 0 -- -- 91
2020-05-10 05:00:00 16.6 0 Calma 5 Nordeste 0 -- -- 91
2020-05-10 04:00:00 16.8 0 Calma 8 Sudoeste 0 -- -- 91
2020-05-10 03:00:00 17.1 2 Oeste 10 Este 0 -- -- 91
2020-05-10 02:00:00 16.9 0 Calma 9 Este 0.1 -- -- 91
2020-05-10 01:00:00 16.9 0 Calma 5 Este 0.2 -- -- 91
2020-05-10 00:00:00 16.6 0 Calma 3 Oeste 0 -- -- 90
2020-05-09 23:00:00 16.5 0 Calma 5 Noroeste 0 -- -- 90
2020-05-09 22:00:00 16.2 0 Calma 10 Noroeste 0 -- -- 90
2020-05-09 21:00:00 16.6 4 Norte 9 Norte 0 -- -- 90
2020-05-09 20:00:00 16.8 3 Norte 10 Este 0 -- -- 89
2020-05-09 19:00:00 17.1 6 Norte 13 Norte 0 -- -- 90
2020-05-09 18:00:00 16.8 0 Calma 12 Noroeste 0.2 -- -- 90
2020-05-09 17:00:00 17.2 4 Norte 13 Norte 0 -- -- 85
2020-05-09 16:00:00 17.2 7 Nordeste 24 Este 0.1 -- -- 86
2020-05-09 15:00:00 16.9 5 Nordeste 14 Este 0.7 -- -- 86
2020-05-09 14:00:00 17.4 0 Calma 19 Este 0 -- -- 81
2020-05-09 13:00:00 17.3 9 Este 17 Nordeste 0 -- -- 79
2020-05-09 12:00:00 17.8 8 Nordeste 17 Nordeste 0 -- -- 71
2020-05-09 11:00:00 18 10 Este 18 Nordeste 0 -- -- 67
2020-05-09 10:00:00 17 10 Este 16 Nordeste 0 -- -- 68
2020-05-09 09:00:00 15.7 3 Noroeste 9 Oeste 0 -- -- 75
2020-05-09 08:00:00 15.7 2 Norte 8 Norte 0 -- -- 79
2020-05-09 07:00:00 15.5 3 Nordeste 9 Nordeste 0 -- -- 81
2020-05-09 06:00:00 14.7 0 Calma 3 Norte 0 -- -- 90
2020-05-09 05:00:00 14.1 0 Calma 3 Nordeste 0 -- -- 90
2020-05-09 04:00:00 13.3 0 Calma 4 Noroeste 0 -- -- 90
2020-05-09 03:00:00 12.7 0 Calma 5 Noroeste 0 -- -- 90
2020-05-09 02:00:00 13.4 0 Calma 5 Este 0 -- -- 90
2020-05-09 01:00:00 13.1 0 Calma 4 Noroeste 0 -- -- 90
2020-05-09 00:00:00 13.1 0 Calma 5 Noroeste 0 -- -- 90
2020-05-08 23:00:00 14 0 Calma 5 Noroeste 0 -- -- 89
2020-05-08 22:00:00 14.9 0 Calma 4 Sudoeste 0 -- -- 88
2020-05-08 21:00:00 16.5 0 Calma 8 Oeste 0 -- -- 84
2020-05-08 20:00:00 18.8 5 Oeste 15 Oeste 0 -- -- 74
2020-05-08 19:00:00 18.8 10 Oeste 19 Oeste 0 -- -- 74
2020-05-08 18:00:00 20.1 9 Oeste 20 Oeste 0 -- -- 60
2020-05-08 17:00:00 21 9 Oeste 21 Oeste 0 -- -- 50
2020-05-08 16:00:00 21.4 7 Oeste 23 Oeste 0 -- -- 45
2020-05-08 15:00:00 21.9 10 Oeste 20 Oeste 0 -- -- 45
2020-05-08 14:00:00 21.8 7 Oeste 18 Sudoeste 0 -- -- 52
2020-05-08 13:00:00 20.6 4 Oeste 16 Oeste 0 -- -- 59
2020-05-08 12:00:00 19.8 12 Oeste 21 Oeste 0 -- -- 56
2020-05-08 11:00:00 20.6 5 Sudoeste 13 Oeste 0 -- -- 58
2020-05-08 10:00:00 19.9 4 Este 7 Este 0 -- -- 77
2020-05-08 09:00:00 15.4 0 Calma 5 Este 0 -- -- 91
2020-05-08 08:00:00 13 0 Calma 5 Norte 0 -- -- 91
2020-05-08 07:00:00 11.5 0 Calma 3 Este 0 -- -- 91
2020-05-08 06:00:00 11.9 0 Calma 4 Este 0 -- -- 91
2020-05-08 05:00:00 13.2 3 Este 5 Este 0 -- -- 90
2020-05-08 04:00:00 13.7 2 Este 5 Este 0 -- -- 90
2020-05-08 03:00:00 14.1 2 Este 8 Nordeste 0 -- -- 90
2020-05-08 02:00:00 14.5 3 Este 5 Este 0 -- -- 90
2020-05-08 01:00:00 14.9 2 Este 5 Este 0 -- -- 89
2020-05-08 00:00:00 15.3 0 Calma 5 Este 0 -- -- 89
2020-05-07 23:00:00 16.7 3 Este 6 Este 0 -- -- 85
2020-05-07 22:00:00 16.4 0 Calma 10 Este 0 -- -- 85
2020-05-07 21:00:00 17.6 5 Este 10 Este 0 -- -- 82
2020-05-07 20:00:00 17.8 3 Este 12 Sudoeste 0 -- -- 80
2020-05-07 19:00:00 18.3 0 Calma 12 Oeste 0 -- -- 79
2020-05-07 18:00:00 18.9 4 Sudoeste 15 Sudoeste 0 -- -- 76
2020-05-07 17:00:00 19.8 0 Calma 18 Sur 0 -- -- 64
2020-05-07 16:00:00 21.2 8 Oeste 23 Oeste 0 -- -- 56
2020-05-07 15:00:00 20.2 9 Oeste 20 Sudoeste 0 -- -- 56
2020-05-07 14:00:00 21.3 3 Sudoeste 14 Sudoeste 0 -- -- 53
2020-05-07 13:00:00 22.6 4 Oeste 21 Sudoeste 0 -- -- 46
2020-05-07 12:00:00 22.2 0 Calma 15 Este 0 -- -- 47
2020-05-07 11:00:00 21.5 0 Calma 13 Este 0 -- -- 50
2020-05-07 10:00:00 22.2 6 Este 13 Nordeste 0 -- -- 45
2020-05-07 09:00:00 16.7 0 Calma 5 Noroeste 0 -- -- 74
2020-05-07 08:00:00 13.7 2 Este 5 Este 0 -- -- 85
2020-05-07 07:00:00 12.6 2 Este 4 Este 0 -- -- 87
2020-05-07 06:00:00 12.6 0 Calma 5 Este 0 -- -- 88
2020-05-07 05:00:00 13.5 3 Este 7 Noroeste 0 -- -- 82
2020-05-07 04:00:00 13.6 0 Calma 8 Noroeste 0 -- -- 83
2020-05-07 03:00:00 13.2 2 Este 4 Este 0 -- -- 81
2020-05-07 02:00:00 14 2 Este 5 Este 0 -- -- 76
2020-05-07 01:00:00 14.2 0 Calma 5 Norte 0 -- -- 74
2020-05-07 00:00:00 15.4 3 Este 5 Este 0 -- -- 70
2020-05-06 23:00:00 15.5 0 Calma 5 Este 0 -- -- 71
2020-05-06 22:00:00 16.5 0 Calma 6 Nordeste 0 -- -- 67
2020-05-06 21:00:00 18.7 2 Este 9 Oeste 0 -- -- 55
2020-05-06 20:00:00 21.8 4 Oeste 14 Sudoeste 0 -- -- 46
2020-05-06 19:00:00 22.6 8 Sudoeste 17 Sudoeste 0 -- -- 44
2020-05-06 18:00:00 22.5 8 Oeste 19 Oeste 0 -- -- 44
2020-05-06 17:00:00 22.4 10 Oeste 23 Oeste 0 -- -- 45
2020-05-06 16:00:00 22.5 14 Oeste 26 Oeste 0 -- -- 45
2020-05-06 15:00:00 23.2 12 Sudoeste 21 Oeste 0 -- -- 45
2020-05-06 14:00:00 22.2 8 Oeste 26 Sudoeste 0 -- -- 45
2020-05-06 13:00:00 22.4 9 Oeste 24 Oeste 0 -- -- 45
2020-05-06 12:00:00 21.8 11 Oeste 19 Sudoeste 0 -- -- 46
2020-05-06 11:00:00 24.1 3 Este 16 Nordeste 0 -- -- 45
2020-05-06 10:00:00 22.1 9 Este 19 Nordeste 0 -- -- 46
2020-05-06 09:00:00 19.8 7 Norte 17 Noroeste 0 -- -- 55
2020-05-06 08:00:00 13.6 0 Calma 7 Noroeste 0 -- -- 90
2020-05-06 07:00:00 12.3 2 Este 12 Este 0 -- -- 91
2020-05-06 06:00:00 12 0 Calma 3 Este 0 -- -- 91
2020-05-06 05:00:00 12.5 0 Calma 9 Norte 0 -- -- 90
2020-05-06 04:00:00 13.1 2 Nordeste 8 Norte 0 -- -- 90
2020-05-06 03:00:00 12.9 2 Este 5 Este 0 -- -- 90
2020-05-06 02:00:00 12.7 0 Calma 5 Este 0 -- -- 90
2020-05-06 01:00:00 13.3 0 Calma 5 Este 0 -- -- 90
2020-05-06 00:00:00 13.4 2 Este 5 Este 0 -- -- 90
2020-05-05 23:00:00 14.3 0 Calma 5 Nordeste 0 -- -- 87
2020-05-05 22:00:00 15.4 0 Calma 5 Este 0 -- -- 85
2020-05-05 21:00:00 17.1 0 Calma 4 Nordeste 0 -- -- 83
2020-05-05 20:00:00 18.6 0 Calma 8 Este 0 -- -- 72
2020-05-05 19:00:00 20.3 5 Nordeste 11 Este 0 -- -- 62
2020-05-05 18:00:00 21.3 5 Este 11 Este 0 -- -- 61
2020-05-05 17:00:00 19.5 4 Oeste 15 Sudoeste 0 -- -- 66
2020-05-05 16:00:00 19.5 6 Oeste 13 Sudoeste 0 -- -- 67
2020-05-05 15:00:00 21.2 11 Este 20 Este 0 -- -- 61
2020-05-05 14:00:00 21.7 9 Este 21 Este 0 -- -- 61
2020-05-05 13:00:00 21.9 6 Este 17 Este 0 -- -- 62
2020-05-05 12:00:00 21 4 Este 17 Este 0 -- -- 60
2020-05-05 11:00:00 22.9 2 Este 15 Sudeste 0 -- -- 51
2020-05-05 10:00:00 20.5 4 Oeste 12 Sudoeste 0 -- -- 60
2020-05-05 09:00:00 16.5 0 Calma 6 Este 0 -- -- 79
2020-05-05 08:00:00 14.3 0 Calma 4 Este 0 -- -- 81
2020-05-05 07:00:00 13.4 0 Calma 5 Este 0 -- -- 79
2020-05-05 06:00:00 15.2 0 Calma 8 Este 0 -- -- 68
2020-05-05 05:00:00 17.1 0 Calma 14 Sudeste 0 -- -- 61
2020-05-05 04:00:00 19.6 3 Sudoeste 28 Oeste 0 -- -- 46
2020-05-05 03:00:00 22.2 8 Oeste 44 Sudoeste 0 -- -- 36
2020-05-05 02:00:00 20.7 6 Sudoeste 25 Sudoeste 0 -- -- 40
2020-05-05 01:00:00 16.6 2 Sudeste 14 Sudoeste 0 -- -- 68
2020-05-05 00:00:00 18 8 Sudoeste 15 Sudoeste 0 -- -- 74